Palm Springs North, Florida
Current Conditions -  °F | °C
As of 6:53 PM on Monday 22 Dec 2014 (Local Time) from KOPF Reporting Station
Clear Clear  
Wind Chill: 23°   Ceiling: Unl
Heat Index: 23°   Visibility: 10mi
Dew Point: 21°   Wind: 6mph
Humidity: 87%   Direction: 160°SSE
Pressure: 29.97"   Gusts: NA
Location:  25.9357°N, 80.3817°W
Report Text: KOPF 222353Z 16005KT 10SM CLR 23/21 A2997 RMK AO2 SLP149 T02280206 10278 20228 53007
Loading
Personal Weather Stations






























Interactive Weather Map New forecast layout! Learn more

10-Day Weather Forecast

Advertisements
Track Severe Weather on mobile